createdAt,value
2022-10-28T00:01:04.368Z,100938.75
2022-10-28T00:03:06.707Z,100932.13
2022-10-28T00:05:09.095Z,100929.41
2022-10-28T00:07:11.254Z,100931.28
2022-10-28T00:09:13.427Z,100931.38
2022-10-28T00:11:18.267Z,100917.19
2022-10-28T00:13:20.329Z,100920.81
2022-10-28T00:15:22.344Z,100923.59
2022-10-28T00:19:26.694Z,100922.66
2022-10-28T00:21:31.915Z,100920.88
2022-10-28T00:23:34.293Z,100928.06
2022-10-28T00:25:36.528Z,100912.78
2022-10-28T00:27:38.651Z,100921.84
2022-10-28T00:29:40.778Z,100924.56
2022-10-28T00:31:43.833Z,100911.94
2022-10-28T00:37:40.971Z,100913.03
2022-10-28T00:39:43.007Z,100916.69
2022-10-28T00:41:51.335Z,100915.00
2022-10-28T00:43:58.653Z,100916.81
2022-10-28T00:46:01.430Z,100907.75
2022-10-28T00:48:05.035Z,100919.50
2022-10-28T00:50:28.254Z,100915.09
2022-10-28T00:52:32.005Z,100910.59
2022-10-28T00:54:35.754Z,100912.41
2022-10-28T00:56:42.370Z,100910.75
2022-10-28T00:58:48.267Z,100902.59
2022-10-28T01:00:50.626Z,100909.81
2022-10-28T01:02:52.936Z,100911.63
2022-10-28T01:04:55.386Z,100899.84
2022-10-28T01:07:00.155Z,100901.75
2022-10-28T01:09:02.249Z,100894.63
2022-10-28T01:11:13.792Z,100897.50
2022-10-28T01:13:45.506Z,100902.91
2022-10-28T01:16:22.092Z,100903.88
2022-10-28T01:18:54.174Z,100905.66
2022-10-28T01:21:37.353Z,100901.41
2022-10-28T01:24:04.485Z,100904.97
2022-10-28T01:26:36.833Z,100906.81
2022-10-28T01:28:57.005Z,100908.66
2022-10-28T01:31:26.690Z,100909.59
2022-10-28T01:33:41.713Z,100906.94
2022-10-28T01:35:52.472Z,100902.25
2022-10-28T01:38:16.643Z,100897.25
2022-10-28T01:40:31.762Z,100898.94
2022-10-28T01:42:39.009Z,100895.38
2022-10-28T01:45:21.594Z,100892.81
2022-10-28T01:47:43.510Z,100898.09
2022-10-28T01:49:55.016Z,100892.69
2022-10-28T01:52:03.987Z,100893.66
2022-10-28T01:54:12.520Z,100898.09
2022-10-28T01:56:19.202Z,100896.34
2022-10-28T01:58:28.906Z,100888.47
2022-10-28T02:00:34.189Z,100893.94
2022-10-28T02:02:38.822Z,100891.41
2022-10-28T02:04:40.784Z,100891.31
2022-10-28T02:06:47.838Z,100884.13
2022-10-28T02:09:08.264Z,100884.06
2022-10-28T02:11:22.585Z,100888.66
2022-10-28T02:13:38.415Z,100893.22
2022-10-28T02:16:18.667Z,100893.22
2022-10-28T02:18:35.430Z,100895.91
2022-10-28T02:20:53.407Z,100897.88
2022-10-28T02:23:18.401Z,100890.81
2022-10-28T02:25:25.555Z,100895.38
2022-10-28T02:27:56.828Z,100889.09
2022-10-28T02:30:24.399Z,100893.56
2022-10-28T02:32:32.417Z,100889.78
2022-10-28T02:34:40.530Z,100898.84
2022-10-28T02:36:46.864Z,100886.28
2022-10-28T02:38:59.224Z,100893.56
2022-10-28T02:41:13.526Z,100888.16
2022-10-28T02:43:17.945Z,100888.13
2022-10-28T02:45:24.246Z,100893.56
2022-10-28T02:47:32.115Z,100889.97
2022-10-28T02:49:38.494Z,100898.13
2022-10-28T02:51:52.435Z,100889.41
2022-10-28T02:54:30.088Z,100883.03
2022-10-28T02:56:37.661Z,100881.09
2022-10-28T02:58:40.852Z,100885.53
2022-10-28T03:00:47.430Z,100884.78
2022-10-28T03:02:49.678Z,100888.44
2022-10-28T03:04:51.753Z,100885.06
2022-10-28T03:06:53.686Z,100891.41
2022-10-28T03:08:58.522Z,100887.84
2022-10-28T03:11:00.772Z,100894.22
2022-10-28T03:13:03.087Z,100889.66
2022-10-28T03:15:05.424Z,100894.00
2022-10-28T03:17:07.941Z,100893.06
2022-10-28T03:19:10.210Z,100892.19
2022-10-28T03:21:12.444Z,100902.03
2022-10-28T03:23:14.664Z,100891.22
2022-10-28T03:25:17.068Z,100885.84
2022-10-28T03:27:18.980Z,100891.25
2022-10-28T03:29:21.414Z,100889.50
2022-10-28T03:31:23.678Z,100892.22
2022-10-28T03:33:25.716Z,100887.78
2022-10-28T03:35:27.865Z,100887.84
2022-10-28T03:37:29.931Z,100890.53
2022-10-28T03:39:32.026Z,100899.53
2022-10-28T03:41:34.088Z,100896.94
2022-10-28T03:43:36.116Z,100894.22
2022-10-28T03:45:38.288Z,100897.88
2022-10-28T03:47:40.701Z,100894.31
2022-10-28T03:49:42.938Z,100897.91
2022-10-28T03:51:45.034Z,100903.38
2022-10-28T03:53:47.448Z,100908.69
2022-10-28T03:55:56.640Z,100901.69
2022-10-28T03:58:01.249Z,100903.50
2022-10-28T04:00:04.773Z,100902.69
2022-10-28T04:02:15.852Z,100903.59
2022-10-28T04:04:18.421Z,100914.38
2022-10-28T04:06:20.468Z,100897.34
2022-10-28T04:08:22.720Z,100901.81
2022-10-28T04:10:24.666Z,100912.63
2022-10-28T04:12:26.589Z,100912.63
2022-10-28T04:14:28.539Z,100909.09
2022-10-28T04:16:30.810Z,100907.34
2022-10-28T04:18:32.955Z,100907.41
2022-10-28T04:20:35.373Z,100909.19
2022-10-28T04:22:37.811Z,100910.13
2022-10-28T04:24:42.267Z,100908.28
2022-10-28T04:26:44.413Z,100906.59
2022-10-28T04:28:49.750Z,100908.50
2022-10-28T04:30:51.987Z,100906.66
2022-10-28T04:32:54.186Z,100904.06
2022-10-28T04:34:56.248Z,100906.88
2022-10-28T04:36:58.528Z,100899.75
2022-10-28T04:39:00.491Z,100904.53
2022-10-28T04:41:02.609Z,100901.94
2022-10-28T04:43:08.452Z,100894.63
2022-10-28T04:45:12.381Z,100899.19
2022-10-28T04:47:14.582Z,100899.41
2022-10-28T04:49:16.657Z,100898.38
2022-10-28T04:51:18.736Z,100905.66
2022-10-28T04:53:21.956Z,100914.53
2022-10-28T04:55:27.308Z,100909.97
2022-10-28T04:57:33.106Z,100908.22
2022-10-28T04:59:35.351Z,100912.72
2022-10-28T05:01:38.088Z,100907.25
2022-10-28T05:03:40.201Z,100909.09
2022-10-28T05:05:42.580Z,100909.06
2022-10-28T05:08:09.871Z,100911.06
2022-10-28T05:10:18.452Z,100910.88
2022-10-28T05:12:20.474Z,100907.41
2022-10-28T05:14:22.597Z,100916.31
2022-10-28T05:16:24.618Z,100912.66
2022-10-28T05:18:26.930Z,100921.75
2022-10-28T05:20:29.274Z,100914.56
2022-10-28T05:22:31.530Z,100921.94
2022-10-28T05:24:35.654Z,100912.03
2022-10-28T05:26:38.108Z,100909.31
2022-10-28T05:28:40.275Z,100912.06
2022-10-28T05:30:42.929Z,100909.34
2022-10-28T05:32:45.315Z,100924.66
2022-10-28T05:34:47.069Z,100913.84
2022-10-28T05:36:50.920Z,100918.28
2022-10-28T05:38:52.793Z,100914.63
2022-10-28T05:40:54.982Z,100922.63
2022-10-28T05:42:57.076Z,100924.38
2022-10-28T05:44:58.932Z,100918.09
2022-10-28T05:47:27.772Z,100915.59
2022-10-28T05:49:29.796Z,100928.72
2022-10-28T05:51:32.178Z,100933.16
2022-10-28T05:53:34.131Z,100934.00
2022-10-28T05:55:36.880Z,100935.66
2022-10-28T05:57:40.014Z,100934.59
2022-10-28T05:59:42.245Z,100939.78
2022-10-28T06:01:44.325Z,100930.72
2022-10-28T06:03:47.915Z,100933.22
2022-10-28T06:05:50.162Z,100935.72
2022-10-28T06:07:52.051Z,100938.22
2022-10-28T06:09:53.857Z,100938.09
2022-10-28T06:11:54.267Z,100939.59
2022-10-28T06:14:51.303Z,100936.72
2022-10-28T06:16:53.207Z,100941.63
2022-10-28T06:18:55.105Z,100939.69
2022-10-28T06:20:58.232Z,100939.44
2022-10-28T06:23:00.153Z,100938.34
2022-10-28T06:25:02.597Z,100937.94
2022-10-28T06:27:07.456Z,100947.66
2022-10-28T06:29:10.018Z,100946.34
2022-10-28T06:31:17.449Z,100949.78
2022-10-28T06:33:22.436Z,100946.72
2022-10-28T06:35:24.893Z,100945.53
2022-10-28T06:37:28.293Z,100949.69
2022-10-28T06:39:30.067Z,100951.25
2022-10-28T06:41:32.127Z,100945.56
2022-10-28T06:43:34.195Z,100946.13
2022-10-28T06:45:35.997Z,100948.84
2022-10-28T06:47:41.510Z,100951.22
2022-10-28T06:49:43.794Z,100951.81
2022-10-28T06:51:45.585Z,100951.91
2022-10-28T06:53:51.743Z,100951.91
2022-10-28T06:55:58.560Z,100943.69
2022-10-28T06:58:02.113Z,100949.69
2022-10-28T07:00:04.906Z,100952.25
2022-10-28T07:02:06.986Z,100953.97
2022-10-28T07:04:12.921Z,100947.91
2022-10-28T07:06:16.780Z,100948.22
2022-10-28T07:08:19.079Z,100955.22
2022-10-28T07:10:21.104Z,100941.53
2022-10-28T07:12:23.050Z,100956.88
2022-10-28T07:14:24.968Z,100944.66
2022-10-28T07:16:26.827Z,100950.69
2022-10-28T07:18:30.058Z,100942.41
2022-10-28T07:20:33.049Z,100945.25
2022-10-28T07:22:34.872Z,100943.56
2022-10-28T07:24:36.624Z,100945.22
2022-10-28T07:26:39.112Z,100943.03
2022-10-28T07:28:42.927Z,100946.31
2022-10-28T07:30:45.005Z,100950.13
2022-10-28T07:32:46.844Z,100953.56
2022-10-28T07:34:49.063Z,100946.13
2022-10-28T07:36:55.106Z,100954.06
2022-10-28T07:38:59.923Z,100945.59
2022-10-28T07:41:09.588Z,100944.75
2022-10-28T07:43:11.643Z,100942.59
2022-10-28T07:45:13.971Z,100948.34
2022-10-28T07:47:17.822Z,100944.81
2022-10-28T07:49:19.780Z,100938.22
2022-10-28T07:51:21.923Z,100945.94
2022-10-28T07:53:26.313Z,100949.91
2022-10-28T07:55:30.770Z,100936.16
2022-10-28T07:57:44.966Z,100943.91
2022-10-28T07:59:46.806Z,100942.81
2022-10-28T08:01:49.047Z,100946.91
2022-10-28T08:03:51.292Z,100941.94
2022-10-28T08:06:01.492Z,100939.50
2022-10-28T08:08:03.727Z,100950.72
2022-10-28T08:10:09.262Z,100952.09
2022-10-28T08:12:40.002Z,100946.19
2022-10-28T08:14:42.290Z,100939.38
2022-10-28T08:16:45.501Z,100942.63
2022-10-28T08:18:47.814Z,100943.00
2022-10-28T08:20:50.074Z,100947.28
2022-10-28T08:22:52.525Z,100945.03
2022-10-28T08:24:54.911Z,100944.66
2022-10-28T08:26:57.205Z,100944.16
2022-10-28T08:29:01.643Z,100952.94
2022-10-28T08:31:09.687Z,100951.91
2022-10-28T08:33:12.383Z,100951.66
2022-10-28T08:35:14.481Z,100946.97
2022-10-28T08:37:16.584Z,100952.94
2022-10-28T08:39:18.582Z,100952.78
2022-10-28T08:41:59.267Z,100955.44
2022-10-28T08:44:19.875Z,100949.69
2022-10-28T08:46:32.493Z,100956.75
2022-10-28T08:48:36.923Z,100954.59
2022-10-28T08:50:48.293Z,100954.34
2022-10-28T08:53:18.047Z,100944.16
2022-10-28T08:55:46.286Z,100954.84
2022-10-28T08:57:55.828Z,100948.16
2022-10-28T09:00:00.121Z,100953.06
2022-10-28T09:02:26.217Z,100943.66
2022-10-28T09:04:38.836Z,100948.63
2022-10-28T09:06:40.721Z,100941.09
2022-10-28T09:08:46.817Z,100941.97
2022-10-28T09:11:21.312Z,100944.41
2022-10-28T09:14:19.811Z,100944.25
2022-10-28T09:16:47.013Z,100944.81
2022-10-28T09:18:56.656Z,100938.97
2022-10-28T09:21:05.228Z,100944.03
2022-10-28T09:23:22.601Z,100936.72
2022-10-28T09:25:58.938Z,100931.94
2022-10-28T09:28:19.033Z,100928.97
2022-10-28T09:30:45.275Z,100928.88
2022-10-28T09:33:04.255Z,100924.84
2022-10-28T09:35:14.169Z,100922.78
2022-10-28T09:37:31.056Z,100922.44
2022-10-28T09:39:41.970Z,100931.03
2022-10-28T09:41:46.033Z,100935.84
2022-10-28T09:44:04.822Z,100928.44
2022-10-28T09:46:23.997Z,100932.50
2022-10-28T09:48:33.199Z,100929.44
2022-10-28T09:51:02.633Z,100929.19
2022-10-28T09:53:33.716Z,100923.13
2022-10-28T09:56:03.881Z,100923.75
2022-10-28T09:58:06.037Z,100917.59
2022-10-28T10:00:14.910Z,100920.00
2022-10-28T10:02:28.366Z,100920.00
2022-10-28T10:04:35.882Z,100920.25
2022-10-28T10:06:40.246Z,100920.81
2022-10-28T10:09:36.645Z,100915.25
2022-10-28T10:11:45.110Z,100913.75
2022-10-28T10:13:47.696Z,100914.09
2022-10-28T10:15:55.268Z,100913.84
2022-10-28T10:18:00.514Z,100918.94
2022-10-28T10:20:05.126Z,100914.25
2022-10-28T10:22:07.107Z,100912.13
2022-10-28T10:24:31.047Z,100912.94
2022-10-28T10:26:33.554Z,100910.81
2022-10-28T10:28:47.989Z,100909.03
2022-10-28T10:30:53.494Z,100904.09
2022-10-28T10:32:56.752Z,100910.84
2022-10-28T10:35:04.448Z,100907.03
2022-10-28T10:37:18.947Z,100910.50
2022-10-28T10:39:26.949Z,100910.78
2022-10-28T10:41:42.206Z,100909.72
2022-10-28T10:43:44.367Z,100912.19
2022-10-28T10:46:03.230Z,100909.56
2022-10-28T10:48:13.283Z,100910.94
2022-10-28T10:52:51.341Z,100897.00
2022-10-28T10:55:23.949Z,100891.06
2022-10-28T10:57:26.704Z,100889.97
2022-10-28T10:59:31.577Z,100889.69
2022-10-28T11:01:37.073Z,100887.03
2022-10-28T11:03:49.561Z,100889.09
2022-10-28T11:06:30.894Z,100885.97
2022-10-28T11:08:35.644Z,100881.50
2022-10-28T11:10:37.804Z,100879.44
2022-10-28T11:12:52.716Z,100881.31
2022-10-28T11:15:16.965Z,100877.28
2022-10-28T11:17:28.554Z,100877.09
2022-10-28T11:19:38.052Z,100879.75
2022-10-28T11:21:57.436Z,100866.84
2022-10-28T11:24:21.296Z,100868.41
2022-10-28T11:26:25.212Z,100873.50
2022-10-28T11:28:54.902Z,100860.97
2022-10-28T11:31:49.484Z,100868.69
2022-10-28T11:34:19.247Z,100864.88
2022-10-28T11:36:50.651Z,100858.72
2022-10-28T11:38:55.783Z,100856.25
2022-10-28T11:41:18.035Z,100869.94
2022-10-28T11:43:33.523Z,100864.88
2022-10-28T11:45:48.601Z,100858.41
2022-10-28T11:48:14.073Z,100860.94
2022-10-28T11:50:24.976Z,100853.72
2022-10-28T11:52:33.252Z,100854.38
2022-10-28T11:55:14.631Z,100848.81
2022-10-28T11:57:24.320Z,100850.34
2022-10-28T11:59:50.232Z,100841.28
2022-10-28T12:01:58.592Z,100846.66
2022-10-28T12:04:33.041Z,100841.19
2022-10-28T12:06:56.315Z,100842.16
2022-10-28T12:09:01.378Z,100836.59
2022-10-28T12:11:38.492Z,100842.84
2022-10-28T12:13:45.803Z,100845.00
2022-10-28T12:16:15.753Z,100840.41
2022-10-28T12:18:33.816Z,100836.69
2022-10-28T12:21:08.576Z,100840.84
2022-10-28T12:23:18.473Z,100839.97
2022-10-28T12:25:27.801Z,100843.59
2022-10-28T12:27:38.327Z,100833.72
2022-10-28T12:29:46.218Z,100828.38
2022-10-28T12:31:54.180Z,100832.84
2022-10-28T12:33:59.792Z,100837.03
2022-10-28T12:36:24.896Z,100836.38
2022-10-28T12:38:43.067Z,100830.69
2022-10-28T12:40:51.248Z,100829.72
2022-10-28T12:43:08.273Z,100822.59
2022-10-28T12:45:19.388Z,100828.94
2022-10-28T12:47:31.316Z,100827.94
2022-10-28T12:50:12.412Z,100829.25
2022-10-28T12:52:25.004Z,100834.50
2022-10-28T12:54:42.270Z,100828.59
2022-10-28T12:56:57.196Z,100827.88
2022-10-28T12:59:11.925Z,100833.28
2022-10-28T13:01:18.389Z,100834.16
2022-10-28T13:03:21.625Z,100835.00
2022-10-28T13:05:31.877Z,100831.41
2022-10-28T13:07:58.647Z,100834.34
2022-10-28T13:10:18.259Z,100830.25
2022-10-28T13:12:45.132Z,100823.91
2022-10-28T13:15:12.916Z,100820.19
2022-10-28T13:17:42.654Z,100828.78
2022-10-28T13:20:37.527Z,100829.06
2022-10-28T13:22:48.969Z,100827.63
2022-10-28T13:25:03.149Z,100831.16
2022-10-28T13:27:06.222Z,100825.78
2022-10-28T13:29:20.646Z,100822.47
2022-10-28T13:31:25.281Z,100826.75
2022-10-28T13:33:29.860Z,100821.38
2022-10-28T13:35:33.054Z,100827.72
2022-10-28T13:37:36.949Z,100826.97
2022-10-28T13:39:42.076Z,100826.38
2022-10-28T13:41:47.895Z,100829.13
2022-10-28T13:47:45.145Z,100825.22
2022-10-28T13:50:09.081Z,100834.41
2022-10-28T13:52:11.646Z,100820.72
2022-10-28T13:54:30.493Z,100829.41
2022-10-28T13:56:46.768Z,100829.72
2022-10-28T13:58:53.863Z,100833.06
2022-10-28T14:01:37.176Z,100834.22
2022-10-28T14:03:39.402Z,100833.25
2022-10-28T14:05:44.562Z,100835.41
2022-10-28T14:07:56.208Z,100836.47
2022-10-28T14:10:25.237Z,100828.75
2022-10-28T14:12:32.885Z,100831.50
2022-10-28T14:14:35.323Z,100832.44
2022-10-28T14:16:39.525Z,100830.78
2022-10-28T14:18:44.813Z,100829.13
2022-10-28T14:20:47.513Z,100823.75
2022-10-28T14:22:51.280Z,100823.03
2022-10-28T14:24:53.818Z,100820.59
2022-10-28T14:27:12.604Z,100826.72
2022-10-28T14:29:28.047Z,100832.47
2022-10-28T14:31:38.431Z,100829.66
2022-10-28T14:33:43.594Z,100830.53
2022-10-28T14:35:48.198Z,100832.78
2022-10-28T14:38:04.012Z,100831.97
2022-10-28T14:40:19.761Z,100830.50
2022-10-28T14:42:46.753Z,100829.91
2022-10-28T14:44:59.521Z,100827.72
2022-10-28T14:47:20.142Z,100821.41
2022-10-28T14:49:29.067Z,100818.59
2022-10-28T14:51:39.563Z,100823.25
2022-10-28T14:53:43.623Z,100817.78
2022-10-28T14:55:57.679Z,100814.47
2022-10-28T14:58:27.637Z,100813.94
2022-10-28T15:00:29.938Z,100807.41
2022-10-28T15:02:34.588Z,100821.25
2022-10-28T15:04:39.481Z,100811.59
2022-10-28T15:06:46.090Z,100813.59
2022-10-28T15:08:48.490Z,100808.25
2022-10-28T15:10:50.744Z,100804.03
2022-10-28T15:12:55.234Z,100802.50
2022-10-28T15:14:58.933Z,100801.91
2022-10-28T15:17:16.161Z,100808.78
2022-10-28T15:19:22.660Z,100805.38
2022-10-28T15:21:24.832Z,100798.25
2022-10-28T15:23:26.986Z,100811.16
2022-10-28T15:25:29.892Z,100810.38
2022-10-28T15:27:38.312Z,100811.81
2022-10-28T15:29:42.603Z,100810.06
2022-10-28T15:32:16.432Z,100815.16
2022-10-28T15:34:21.618Z,100810.75
2022-10-28T15:36:25.461Z,100810.94
2022-10-28T15:38:40.605Z,100821.50
2022-10-28T15:40:42.845Z,100811.63
2022-10-28T15:43:21.111Z,100822.59
2022-10-28T15:45:29.240Z,100817.16
2022-10-28T15:47:36.038Z,100821.91
2022-10-28T15:49:40.671Z,100822.13
2022-10-28T15:51:42.862Z,100824.22
2022-10-28T15:53:54.262Z,100825.75
2022-10-28T15:56:29.705Z,100823.56
2022-10-28T15:58:54.288Z,100827.16
2022-10-28T16:00:58.589Z,100826.53
2022-10-28T16:03:07.907Z,100808.75
2022-10-28T16:05:33.180Z,100814.78
2022-10-28T16:07:35.019Z,100810.03
2022-10-28T16:09:44.164Z,100819.59
2022-10-28T16:11:50.311Z,100809.50
2022-10-28T16:13:52.792Z,100811.41
2022-10-28T16:15:58.586Z,100816.22
2022-10-28T16:18:02.059Z,100806.38
2022-10-28T16:20:18.949Z,100811.44
2022-10-28T16:22:25.834Z,100806.84
2022-10-28T16:24:27.845Z,100813.34
2022-10-28T16:26:32.635Z,100806.38
2022-10-28T16:28:34.718Z,100801.91
2022-10-28T16:30:36.827Z,100809.34
2022-10-28T16:32:50.005Z,100806.97
2022-10-28T16:34:52.010Z,100818.84
2022-10-28T16:36:54.115Z,100814.44
2022-10-28T16:38:56.395Z,100817.31
2022-10-28T16:41:00.400Z,100815.81
2022-10-28T16:43:02.572Z,100819.47
2022-10-28T16:45:13.270Z,100818.75
2022-10-28T16:47:18.072Z,100816.19
2022-10-28T16:49:20.040Z,100827.22
2022-10-28T16:51:22.006Z,100821.94
2022-10-28T16:53:24.393Z,100821.28
2022-10-28T16:55:27.724Z,100823.19
2022-10-28T16:57:29.922Z,100822.56
2022-10-28T16:59:32.080Z,100820.78
2022-10-28T17:01:34.590Z,100818.28
2022-10-28T17:03:36.642Z,100819.47
2022-10-28T17:06:28.982Z,100824.75
2022-10-28T17:09:00.846Z,100830.91
2022-10-28T17:10:53.534Z,100828.34
2022-10-28T17:12:56.395Z,100828.50
2022-10-28T17:14:58.833Z,100835.91
2022-10-28T17:17:00.854Z,100831.59
2022-10-28T17:19:03.410Z,100830.03
2022-10-28T17:21:05.762Z,100822.09
2022-10-28T17:23:08.108Z,100825.91
2022-10-28T17:25:10.755Z,100826.13
2022-10-28T17:27:13.482Z,100827.13
2022-10-28T17:29:15.521Z,100821.84
2022-10-28T17:31:20.597Z,100826.47
2022-10-28T17:33:26.215Z,100826.66
2022-10-28T17:35:28.277Z,100835.84
2022-10-28T17:37:34.472Z,100825.13
2022-10-28T17:39:37.979Z,100820.72
2022-10-28T17:41:40.007Z,100826.31
2022-10-28T17:43:42.603Z,100834.59
2022-10-28T17:45:44.661Z,100838.25
2022-10-28T17:47:47.241Z,100832.97
2022-10-28T17:49:49.238Z,100836.84
2022-10-28T17:51:51.999Z,100838.84
2022-10-28T17:53:55.753Z,100837.16
2022-10-28T17:55:58.569Z,100848.13
2022-10-28T17:58:00.404Z,100835.66
2022-10-28T18:00:02.296Z,100844.06
2022-10-28T18:02:14.672Z,100841.59
2022-10-28T18:04:17.350Z,100837.09
2022-10-28T18:06:19.229Z,100833.63
2022-10-28T18:08:22.312Z,100839.25
2022-10-28T18:10:24.322Z,100840.28
2022-10-28T18:12:26.194Z,100837.75
2022-10-28T18:14:28.679Z,100838.78
2022-10-28T18:16:30.524Z,100842.50
2022-10-28T18:18:32.629Z,100837.22
2022-10-28T18:20:34.541Z,100840.97
2022-10-28T18:22:36.485Z,100838.38
2022-10-28T18:24:38.663Z,100833.09
2022-10-28T18:26:41.443Z,100827.72
2022-10-28T18:28:45.214Z,100836.00
2022-10-28T18:30:47.109Z,100834.25
2022-10-28T18:32:49.225Z,100828.81
2022-10-28T18:34:51.407Z,100825.28
2022-10-28T18:36:54.123Z,100835.25
2022-10-28T18:38:58.546Z,100834.41
2022-10-28T18:41:00.711Z,100842.47
2022-10-28T18:43:02.720Z,100847.03
2022-10-28T18:45:05.705Z,100848.84
2022-10-28T18:47:07.720Z,100849.72
2022-10-28T18:49:09.793Z,100849.88
2022-10-28T18:51:13.132Z,100841.00
2022-10-28T18:53:15.077Z,100844.59
2022-10-28T18:55:17.163Z,100833.88
2022-10-28T18:57:19.489Z,100836.63
2022-10-28T18:59:21.675Z,100842.78
2022-10-28T19:01:26.739Z,100843.06
2022-10-28T19:03:29.035Z,100837.59
2022-10-28T19:05:32.655Z,100844.91
2022-10-28T19:07:35.042Z,100838.59
2022-10-28T19:09:37.022Z,100843.06
2022-10-28T19:11:39.114Z,100839.47
2022-10-28T19:13:44.439Z,100844.22
2022-10-28T19:15:47.384Z,100849.47
2022-10-28T19:17:52.249Z,100843.25
2022-10-28T19:19:54.965Z,100849.50
2022-10-28T19:21:57.241Z,100847.75
2022-10-28T19:23:59.456Z,100858.53
2022-10-28T19:26:01.516Z,100845.84
2022-10-28T19:28:03.556Z,100853.06
2022-10-28T19:30:09.118Z,100854.81
2022-10-28T19:32:14.702Z,100855.69
2022-10-28T19:34:16.682Z,100856.63
2022-10-28T19:36:21.832Z,100863.03
2022-10-28T19:38:23.896Z,100862.13
2022-10-28T19:40:25.957Z,100864.03
2022-10-28T19:46:18.104Z,100862.38
2022-10-28T19:48:20.174Z,100855.06
2022-10-28T19:50:22.152Z,100862.34
2022-10-28T19:56:01.090Z,100863.34
2022-10-28T19:58:03.391Z,100857.00
2022-10-28T20:00:06.143Z,100856.13
2022-10-28T20:02:13.433Z,100857.84
2022-10-28T20:04:17.533Z,100871.47
2022-10-28T20:06:21.908Z,100866.13
2022-10-28T20:08:24.229Z,100867.06
2022-10-28T20:10:26.350Z,100869.69
2022-10-28T20:12:28.500Z,100866.13
2022-10-28T20:14:31.993Z,100873.28
2022-10-28T20:16:34.965Z,100867.81
2022-10-28T20:18:37.720Z,100872.50
2022-10-28T20:20:39.794Z,100868.97
2022-10-28T20:22:42.563Z,100868.97
2022-10-28T20:24:45.215Z,100868.09
2022-10-28T20:26:47.733Z,100868.09
2022-10-28T20:28:51.820Z,100877.09
2022-10-28T20:31:18.904Z,100870.09
2022-10-28T20:33:21.067Z,100866.28
2022-10-28T20:35:23.393Z,100867.16
2022-10-28T20:37:25.794Z,100873.50
2022-10-28T20:39:28.130Z,100875.31
2022-10-28T20:41:32.301Z,100868.09
2022-10-28T20:43:34.618Z,100865.41
2022-10-28T20:45:36.778Z,100871.66
2022-10-28T20:47:38.967Z,100880.72
2022-10-28T20:49:43.394Z,100862.75
2022-10-28T20:51:45.671Z,100878.25
2022-10-28T20:53:49.167Z,100870.97
2022-10-28T20:55:53.254Z,100873.59
2022-10-28T20:57:55.656Z,100882.69
2022-10-28T20:59:57.966Z,100881.88
2022-10-28T21:02:00.160Z,100879.16
2022-10-28T21:04:07.270Z,100873.75
2022-10-28T21:06:10.271Z,100876.44
2022-10-28T21:08:12.654Z,100880.03
2022-10-28T21:10:17.426Z,100884.72
2022-10-28T21:12:19.574Z,100881.19
2022-10-28T21:14:22.171Z,100880.25
2022-10-28T21:16:26.073Z,100882.00
2022-10-28T21:18:28.221Z,100885.59
2022-10-28T21:20:36.391Z,100886.59
2022-10-28T21:22:38.556Z,100883.84
2022-10-28T21:24:40.767Z,100883.91
2022-10-28T21:26:43.723Z,100881.19
2022-10-28T21:28:52.256Z,100878.72
2022-10-28T21:31:06.588Z,100868.91
2022-10-28T21:33:08.718Z,100876.91
2022-10-28T21:35:11.175Z,100882.31
2022-10-28T21:37:13.460Z,100874.19
2022-10-28T21:39:15.992Z,100876.03
2022-10-28T21:41:19.950Z,100867.88
2022-10-28T21:43:25.953Z,100873.31
2022-10-28T21:45:28.248Z,100866.94
2022-10-28T21:47:30.729Z,100866.09
2022-10-28T21:49:32.746Z,100864.41
2022-10-28T21:51:35.056Z,100868.94
2022-10-28T21:53:38.365Z,100865.34
2022-10-28T21:55:46.535Z,100869.06
2022-10-28T21:57:49.884Z,100862.78
2022-10-28T21:59:52.069Z,100868.13
2022-10-28T22:01:54.761Z,100865.50
2022-10-28T22:03:56.982Z,100864.59
2022-10-28T22:05:59.144Z,100863.66
2022-10-28T22:08:03.188Z,100854.69
2022-10-28T22:10:19.053Z,100849.66
2022-10-28T22:12:21.265Z,100853.94
2022-10-28T22:14:23.398Z,100857.13
2022-10-28T22:16:29.673Z,100859.03
2022-10-28T22:18:34.415Z,100862.13
2022-10-28T22:20:36.595Z,100862.91
2022-10-28T22:22:38.753Z,100854.78
2022-10-28T22:24:40.801Z,100859.31
2022-10-28T22:26:47.941Z,100850.19
2022-10-28T22:28:51.037Z,100860.09
2022-10-28T22:30:59.002Z,100851.44
2022-10-28T22:33:03.620Z,100858.88
2022-10-28T22:35:07.228Z,100855.59
2022-10-28T22:37:09.690Z,100851.88
2022-10-28T22:39:11.920Z,100845.38
2022-10-28T22:41:19.948Z,100845.25
2022-10-28T22:43:22.220Z,100845.53
2022-10-28T22:45:24.270Z,100837.63
2022-10-28T22:47:26.520Z,100828.72
2022-10-28T22:49:28.532Z,100834.22
2022-10-28T22:51:30.882Z,100838.88
2022-10-28T22:53:33.272Z,100830.97
2022-10-28T22:55:35.808Z,100831.34
2022-10-28T22:57:38.061Z,100839.69
2022-10-28T22:59:40.031Z,100841.47
2022-10-28T23:01:42.449Z,100837.69
2022-10-28T23:03:52.978Z,100837.69
2022-10-28T23:05:57.508Z,100838.47
2022-10-28T23:08:02.574Z,100839.22
2022-10-28T23:10:05.239Z,100839.94
2022-10-28T23:12:07.793Z,100829.22
2022-10-28T23:14:09.933Z,100830.94
2022-10-28T23:16:16.450Z,100832.81
2022-10-28T23:18:18.455Z,100836.31
2022-10-28T23:20:25.063Z,100828.09
2022-10-28T23:22:29.135Z,100833.94
2022-10-28T23:24:31.094Z,100828.38
2022-10-28T23:26:33.201Z,100826.25
2022-10-28T23:28:35.193Z,100821.09
2022-10-28T23:30:37.367Z,100830.28
2022-10-28T23:32:39.807Z,100832.94
2022-10-28T23:34:41.876Z,100829.34
2022-10-28T23:36:43.980Z,100824.06
2022-10-28T23:38:46.378Z,100820.22
2022-10-28T23:41:06.031Z,100817.13
2022-10-28T23:43:08.196Z,100814.88
2022-10-28T23:45:12.176Z,100812.59
2022-10-28T23:47:14.457Z,100816.78
2022-10-28T23:49:19.350Z,100814.59
2022-10-28T23:51:21.453Z,100807.97
2022-10-28T23:53:24.646Z,100807.09
2022-10-28T23:55:26.924Z,100806.31
2022-10-28T23:57:29.096Z,100808.09
2022-10-28T23:59:31.281Z,100808.25
